ACA401 CYUL-CYYZ
Flight info
| Callsign | ACA401 |
|---|---|
| Flight time | 0h 57m |
| Altitude | 30000 |
| Route | BOBKI DCT MELTI DCT TORNI RAGID6 |
| Aircraft | A321/M-SDE3FGHIRWY/LB1 |
Departure
| Time | 2026-05-05 12:04 |
|---|---|
| Airport | Montreal / Pierre Elliott Trudeau International Airport (CYUL) |
Arrival
| Time | 2026-05-05 13:01 |
|---|---|
| Airport | Toronto Pearson International Airport (CYYZ) |
| Time | Latitude | Longitude | Altitude | Speed | Heading |
|---|---|---|---|---|---|
| 2026-05-05 11:26 | 45.45933 | -73.74952 | 105 ft | 0 kts | 178° |
| 2026-05-05 11:49 | 45.45949 | -73.74953 | 104 ft | 3 kts | 176° |
| 2026-05-05 11:50 | 45.45973 | -73.74962 | 103 ft | 4 kts | 139° |
| 2026-05-05 11:50 | 45.45988 | -73.74991 | 102 ft | 3 kts | 108° |
| 2026-05-05 11:50 | 45.45989 | -73.74995 | 104 ft | 0 kts | 107° |
| 2026-05-05 11:54 | 45.45983 | -73.74964 | 105 ft | 5 kts | 103° |
| 2026-05-05 11:54 | 45.45981 | -73.74913 | 105 ft | 5 kts | 90° |
| 2026-05-05 11:54 | 45.45982 | -73.74863 | 105 ft | 5 kts | 88° |
| 2026-05-05 11:55 | 45.45982 | -73.74791 | 105 ft | 9 kts | 97° |
| 2026-05-05 11:55 | 45.45962 | -73.74701 | 105 ft | 10 kts | 105° |
| 2026-05-05 11:55 | 45.45958 | -73.74609 | 105 ft | 9 kts | 85° |
| 2026-05-05 11:55 | 45.45970 | -73.74522 | 103 ft | 9 kts | 75° |
| 2026-05-05 11:56 | 45.45992 | -73.74437 | 104 ft | 9 kts | 69° |
| 2026-05-05 11:56 | 45.45980 | -73.74354 | 103 ft | 9 kts | 126° |
| 2026-05-05 11:56 | 45.45982 | -73.74268 | 103 ft | 10 kts | 54° |
| 2026-05-05 11:56 | 45.46039 | -73.74188 | 102 ft | 12 kts | 43° |
| 2026-05-05 11:57 | 45.46102 | -73.74106 | 104 ft | 12 kts | 42° |
| 2026-05-05 11:57 | 45.46167 | -73.74022 | 104 ft | 14 kts | 43° |
| 2026-05-05 11:57 | 45.46248 | -73.73915 | 104 ft | 18 kts | 43° |
| 2026-05-05 11:57 | 45.46341 | -73.73793 | 107 ft | 18 kts | 43° |
| 2026-05-05 11:58 | 45.46437 | -73.73667 | 109 ft | 19 kts | 43° |
| 2026-05-05 11:58 | 45.46536 | -73.73537 | 110 ft | 20 kts | 42° |
| 2026-05-05 11:58 | 45.46639 | -73.73402 | 110 ft | 21 kts | 43° |
| 2026-05-05 11:58 | 45.46746 | -73.73261 | 113 ft | 21 kts | 42° |
| 2026-05-05 11:59 | 45.46856 | -73.73117 | 114 ft | 22 kts | 42° |
| 2026-05-05 11:59 | 45.46971 | -73.72967 | 116 ft | 23 kts | 43° |
| 2026-05-05 11:59 | 45.47091 | -73.72810 | 116 ft | 24 kts | 42° |
| 2026-05-05 11:59 | 45.47211 | -73.72653 | 114 ft | 23 kts | 43° |
| 2026-05-05 12:00 | 45.47324 | -73.72505 | 117 ft | 21 kts | 42° |
| 2026-05-05 12:00 | 45.47428 | -73.72367 | 115 ft | 19 kts | 43° |
| 2026-05-05 12:00 | 45.47523 | -73.72244 | 119 ft | 18 kts | 42° |
| 2026-05-05 12:00 | 45.47608 | -73.72132 | 119 ft | 16 kts | 43° |
| 2026-05-05 12:01 | 45.47682 | -73.72034 | 120 ft | 14 kts | 42° |
| 2026-05-05 12:01 | 45.47746 | -73.71951 | 119 ft | 11 kts | 43° |
| 2026-05-05 12:01 | 45.47799 | -73.71880 | 121 ft | 9 kts | 50° |
| 2026-05-05 12:01 | 45.47802 | -73.71802 | 123 ft | 7 kts | 111° |
| 2026-05-05 12:02 | 45.47773 | -73.71740 | 120 ft | 8 kts | 128° |
| 2026-05-05 12:02 | 45.47735 | -73.71676 | 121 ft | 9 kts | 132° |
| 2026-05-05 12:02 | 45.47695 | -73.71629 | 124 ft | 6 kts | 171° |
| 2026-05-05 12:02 | 45.47663 | -73.71656 | 124 ft | 5 kts | 221° |
| 2026-05-05 12:03 | 45.47658 | -73.71663 | 124 ft | 0 kts | 222° |
| 2026-05-05 12:03 | 45.47655 | -73.71667 | 124 ft | 5 kts | 222° |
| 2026-05-05 12:03 | 45.47460 | -73.71920 | 120 ft | 72 kts | 222° |
| 2026-05-05 12:03 | 45.46938 | -73.72604 | 118 ft | 128 kts | 222° |
| 2026-05-05 12:04 | 45.46177 | -73.73610 | 219 ft | 160 kts | 223° |
| 2026-05-05 12:04 | 45.45405 | -73.74678 | 897 ft | 154 kts | 224° |
| 2026-05-05 12:04 | 45.44639 | -73.75720 | 1691 ft | 150 kts | 222° |
| 2026-05-05 12:04 | 45.43863 | -73.76777 | 2299 ft | 164 kts | 225° |
| 2026-05-05 12:05 | 45.42980 | -73.77979 | 2629 ft | 188 kts | 225° |
| 2026-05-05 12:05 | 45.41990 | -73.79365 | 2978 ft | 210 kts | 232° |
| 2026-05-05 12:05 | 45.41401 | -73.81309 | 3537 ft | 224 kts | 259° |
| 2026-05-05 12:05 | 45.41367 | -73.83572 | 4208 ft | 233 kts | 266° |
| 2026-05-05 12:06 | 45.41383 | -73.85915 | 4881 ft | 240 kts | 267° |
| 2026-05-05 12:06 | 45.41403 | -73.88310 | 5621 ft | 244 kts | 266° |
| 2026-05-05 12:06 | 45.41424 | -73.90736 | 6415 ft | 247 kts | 266° |
| 2026-05-05 12:06 | 45.41445 | -73.93193 | 7190 ft | 249 kts | 266° |
| 2026-05-05 12:07 | 45.41464 | -73.95640 | 7923 ft | 251 kts | 266° |
| 2026-05-05 12:07 | 45.41481 | -73.98139 | 8658 ft | 253 kts | 266° |
| 2026-05-05 12:07 | 45.41497 | -74.00656 | 9429 ft | 256 kts | 266° |
| 2026-05-05 12:07 | 45.41511 | -74.03204 | 10154 ft | 260 kts | 266° |
| 2026-05-05 12:08 | 45.41520 | -74.05885 | 10325 ft | 282 kts | 266° |
| 2026-05-05 12:08 | 45.41530 | -74.08779 | 10503 ft | 301 kts | 266° |
| 2026-05-05 12:08 | 45.41546 | -74.11793 | 11043 ft | 307 kts | 266° |
| 2026-05-05 12:08 | 45.41558 | -74.13817 | 11458 ft | 309 kts | 267° |
| 2026-05-05 12:09 | 45.41575 | -74.16891 | 12095 ft | 312 kts | 267° |
| 2026-05-05 12:09 | 45.41589 | -74.19984 | 12749 ft | 314 kts | 266° |
| 2026-05-05 12:09 | 45.41602 | -74.23099 | 13409 ft | 316 kts | 267° |
| 2026-05-05 12:09 | 45.41612 | -74.26235 | 13984 ft | 318 kts | 266° |
| 2026-05-05 12:10 | 45.41624 | -74.29388 | 14578 ft | 320 kts | 267° |
| 2026-05-05 12:10 | 45.41635 | -74.32558 | 15186 ft | 321 kts | 267° |
| 2026-05-05 12:10 | 45.41646 | -74.35739 | 15764 ft | 322 kts | 267° |
| 2026-05-05 12:10 | 45.41655 | -74.38943 | 16319 ft | 324 kts | 266° |
| 2026-05-05 12:11 | 45.41643 | -74.42164 | 16872 ft | 326 kts | 263° |
| 2026-05-05 12:11 | 45.41282 | -74.45343 | 17398 ft | 326 kts | 255° |
| 2026-05-05 12:11 | 45.40758 | -74.48459 | 17903 ft | 328 kts | 255° |
| 2026-05-05 12:11 | 45.40225 | -74.51622 | 18352 ft | 330 kts | 255° |
| 2026-05-05 12:12 | 45.39690 | -74.54809 | 18806 ft | 332 kts | 255° |
| 2026-05-05 12:12 | 45.39153 | -74.58014 | 19248 ft | 334 kts | 255° |
| 2026-05-05 12:12 | 45.38612 | -74.61233 | 19663 ft | 336 kts | 255° |
| 2026-05-05 12:12 | 45.38065 | -74.64475 | 20073 ft | 337 kts | 255° |
| 2026-05-05 12:13 | 45.37518 | -74.67720 | 20473 ft | 339 kts | 255° |
| 2026-05-05 12:13 | 45.36968 | -74.70989 | 20873 ft | 341 kts | 255° |
| 2026-05-05 12:13 | 45.36414 | -74.74276 | 21305 ft | 342 kts | 255° |
| 2026-05-05 12:13 | 45.35861 | -74.77561 | 21736 ft | 342 kts | 255° |
| 2026-05-05 12:14 | 45.35301 | -74.80861 | 22142 ft | 344 kts | 254° |
| 2026-05-05 12:14 | 45.34734 | -74.84175 | 22493 ft | 346 kts | 254° |
| 2026-05-05 12:14 | 45.34165 | -74.87510 | 22871 ft | 348 kts | 254° |
| 2026-05-05 12:14 | 45.33599 | -74.90825 | 23238 ft | 350 kts | 254° |
| 2026-05-05 12:15 | 45.33022 | -74.94193 | 23560 ft | 352 kts | 254° |
| 2026-05-05 12:15 | 45.32439 | -74.97575 | 23889 ft | 353 kts | 254° |
| 2026-05-05 12:15 | 45.31849 | -75.00975 | 24215 ft | 355 kts | 254° |
| 2026-05-05 12:15 | 45.31257 | -75.04385 | 24551 ft | 357 kts | 254° |
| 2026-05-05 12:16 | 45.30662 | -75.07817 | 24887 ft | 358 kts | 254° |
| 2026-05-05 12:16 | 45.30068 | -75.11261 | 25215 ft | 360 kts | 254° |
| 2026-05-05 12:16 | 45.29470 | -75.14721 | 25543 ft | 361 kts | 254° |
| 2026-05-05 12:16 | 45.28869 | -75.18193 | 25897 ft | 363 kts | 254° |
| 2026-05-05 12:17 | 45.28263 | -75.21678 | 26240 ft | 364 kts | 254° |
| 2026-05-05 12:17 | 45.27652 | -75.25178 | 26556 ft | 365 kts | 254° |
| 2026-05-05 12:17 | 45.27039 | -75.28684 | 26866 ft | 367 kts | 253° |
| 2026-05-05 12:17 | 45.26421 | -75.32209 | 27176 ft | 369 kts | 253° |
| 2026-05-05 12:18 | 45.25798 | -75.35748 | 27487 ft | 370 kts | 253° |
| 2026-05-05 12:18 | 45.25171 | -75.39300 | 27785 ft | 372 kts | 253° |
| 2026-05-05 12:18 | 45.24539 | -75.42869 | 28084 ft | 373 kts | 253° |
| 2026-05-05 12:18 | 45.23902 | -75.46453 | 28380 ft | 375 kts | 253° |
| 2026-05-05 12:19 | 45.23263 | -75.50046 | 28622 ft | 377 kts | 253° |
| 2026-05-05 12:19 | 45.22619 | -75.53669 | 28881 ft | 379 kts | 253° |
| 2026-05-05 12:19 | 45.21976 | -75.57302 | 29158 ft | 381 kts | 253° |
| 2026-05-05 12:19 | 45.21329 | -75.60954 | 29429 ft | 382 kts | 253° |
| 2026-05-05 12:20 | 45.20684 | -75.64565 | 29600 ft | 380 kts | 253° |
| 2026-05-05 12:20 | 45.20048 | -75.68125 | 29615 ft | 367 kts | 253° |
| 2026-05-05 12:20 | 45.18804 | -75.75043 | 29615 ft | 360 kts | 253° |
| 2026-05-05 12:21 | 45.17564 | -75.81912 | 29617 ft | 359 kts | 252° |
| 2026-05-05 12:21 | 45.16321 | -75.88776 | 29609 ft | 359 kts | 252° |
| 2026-05-05 12:22 | 45.15077 | -75.95626 | 29607 ft | 359 kts | 252° |
| 2026-05-05 12:22 | 45.13829 | -76.02488 | 29609 ft | 359 kts | 252° |
| 2026-05-05 12:23 | 45.12574 | -76.09334 | 29626 ft | 359 kts | 252° |
| 2026-05-05 12:23 | 45.11322 | -76.16167 | 29582 ft | 359 kts | 252° |
| 2026-05-05 12:24 | 45.09991 | -76.22938 | 29579 ft | 358 kts | 246° |
| 2026-05-05 12:24 | 45.07663 | -76.29200 | 29584 ft | 358 kts | 240° |
| 2026-05-05 12:25 | 45.05247 | -76.35312 | 29590 ft | 358 kts | 240° |
| 2026-05-05 12:25 | 45.02809 | -76.41478 | 29604 ft | 360 kts | 240° |
| 2026-05-05 12:26 | 45.00368 | -76.47650 | 29604 ft | 359 kts | 240° |
| 2026-05-05 12:26 | 44.97931 | -76.53802 | 29607 ft | 358 kts | 239° |
| 2026-05-05 12:27 | 44.95490 | -76.59951 | 29611 ft | 360 kts | 239° |
| 2026-05-05 12:27 | 44.93033 | -76.66112 | 29605 ft | 360 kts | 239° |
| 2026-05-05 12:28 | 44.90576 | -76.72274 | 29610 ft | 360 kts | 239° |
| 2026-05-05 12:28 | 44.88112 | -76.78425 | 29613 ft | 360 kts | 239° |
| 2026-05-05 12:29 | 44.85663 | -76.84540 | 29611 ft | 360 kts | 239° |
| 2026-05-05 12:29 | 44.83195 | -76.90682 | 29614 ft | 360 kts | 239° |
| 2026-05-05 12:30 | 44.80702 | -76.96852 | 29592 ft | 360 kts | 239° |
| 2026-05-05 12:30 | 44.78241 | -77.02959 | 29622 ft | 361 kts | 239° |
| 2026-05-05 12:31 | 44.75761 | -77.09098 | 29625 ft | 361 kts | 239° |
| 2026-05-05 12:31 | 44.73272 | -77.15232 | 29634 ft | 361 kts | 239° |
| 2026-05-05 12:32 | 44.70791 | -77.21361 | 29620 ft | 361 kts | 239° |
| 2026-05-05 12:32 | 44.68304 | -77.27480 | 29623 ft | 361 kts | 239° |
| 2026-05-05 12:33 | 44.65811 | -77.33594 | 29266 ft | 360 kts | 239° |
| 2026-05-05 12:33 | 44.64567 | -77.36641 | 28816 ft | 359 kts | 239° |
| 2026-05-05 12:33 | 44.63320 | -77.39685 | 28340 ft | 360 kts | 239° |
| 2026-05-05 12:34 | 44.62072 | -77.42737 | 27880 ft | 361 kts | 239° |
| 2026-05-05 12:34 | 44.60820 | -77.45790 | 27425 ft | 359 kts | 239° |
| 2026-05-05 12:34 | 44.59578 | -77.48818 | 26990 ft | 356 kts | 240° |
| 2026-05-05 12:34 | 44.58347 | -77.51817 | 26556 ft | 354 kts | 240° |
| 2026-05-05 12:35 | 44.57123 | -77.54795 | 26147 ft | 352 kts | 240° |
| 2026-05-05 12:35 | 44.55905 | -77.57760 | 25738 ft | 350 kts | 240° |
| 2026-05-05 12:35 | 44.54692 | -77.60705 | 25342 ft | 348 kts | 240° |
| 2026-05-05 12:35 | 44.53501 | -77.63595 | 24953 ft | 346 kts | 240° |
| 2026-05-05 12:36 | 44.52296 | -77.66514 | 24574 ft | 344 kts | 240° |
| 2026-05-05 12:36 | 44.51094 | -77.69423 | 24181 ft | 344 kts | 240° |
| 2026-05-05 12:36 | 44.49898 | -77.72312 | 23827 ft | 343 kts | 240° |
| 2026-05-05 12:36 | 44.48705 | -77.75193 | 23475 ft | 341 kts | 240° |
| 2026-05-05 12:37 | 44.47518 | -77.78061 | 23118 ft | 340 kts | 240° |
| 2026-05-05 12:37 | 44.46335 | -77.80922 | 22706 ft | 338 kts | 240° |
| 2026-05-05 12:37 | 44.45158 | -77.83757 | 22298 ft | 336 kts | 240° |
| 2026-05-05 12:37 | 44.43983 | -77.86577 | 21885 ft | 334 kts | 240° |
| 2026-05-05 12:38 | 44.42817 | -77.89371 | 21506 ft | 332 kts | 240° |
| 2026-05-05 12:38 | 44.41656 | -77.92152 | 21119 ft | 330 kts | 240° |
| 2026-05-05 12:38 | 44.40503 | -77.94912 | 20741 ft | 327 kts | 241° |
| 2026-05-05 12:38 | 44.39359 | -77.97645 | 20360 ft | 325 kts | 241° |
| 2026-05-05 12:39 | 44.38222 | -78.00361 | 19986 ft | 322 kts | 241° |
| 2026-05-05 12:39 | 44.37093 | -78.03057 | 19619 ft | 321 kts | 241° |
| 2026-05-05 12:39 | 44.35967 | -78.05747 | 19231 ft | 320 kts | 241° |
| 2026-05-05 12:39 | 44.34845 | -78.08427 | 18893 ft | 319 kts | 241° |
| 2026-05-05 12:40 | 44.33725 | -78.11097 | 18557 ft | 318 kts | 241° |
| 2026-05-05 12:40 | 44.32609 | -78.13750 | 18226 ft | 316 kts | 241° |
| 2026-05-05 12:40 | 44.31496 | -78.16397 | 17894 ft | 315 kts | 241° |
| 2026-05-05 12:40 | 44.30390 | -78.19024 | 17521 ft | 313 kts | 241° |
| 2026-05-05 12:41 | 44.29286 | -78.21639 | 17149 ft | 312 kts | 241° |
| 2026-05-05 12:41 | 44.28188 | -78.24235 | 16781 ft | 310 kts | 241° |
| 2026-05-05 12:41 | 44.27095 | -78.26817 | 16418 ft | 308 kts | 241° |
| 2026-05-05 12:41 | 44.26007 | -78.29381 | 16058 ft | 304 kts | 241° |
| 2026-05-05 12:42 | 44.24945 | -78.31888 | 15731 ft | 296 kts | 241° |
| 2026-05-05 12:42 | 44.23907 | -78.34342 | 15407 ft | 292 kts | 241° |
| 2026-05-05 12:42 | 44.22877 | -78.36770 | 15078 ft | 290 kts | 240° |
| 2026-05-05 12:42 | 44.21852 | -78.39184 | 14760 ft | 289 kts | 240° |
| 2026-05-05 12:43 | 44.20829 | -78.41594 | 14443 ft | 287 kts | 240° |
| 2026-05-05 12:43 | 44.19827 | -78.43951 | 14131 ft | 286 kts | 240° |
| 2026-05-05 12:43 | 44.18815 | -78.46328 | 13818 ft | 285 kts | 240° |
| 2026-05-05 12:43 | 44.17809 | -78.48694 | 13516 ft | 283 kts | 240° |
| 2026-05-05 12:44 | 44.16804 | -78.51060 | 13180 ft | 282 kts | 240° |
| 2026-05-05 12:44 | 44.15805 | -78.53408 | 12835 ft | 281 kts | 240° |
| 2026-05-05 12:44 | 44.14809 | -78.55742 | 12493 ft | 279 kts | 240° |
| 2026-05-05 12:44 | 44.13814 | -78.58069 | 12163 ft | 279 kts | 240° |
| 2026-05-05 12:45 | 44.12825 | -78.60383 | 11823 ft | 277 kts | 240° |
| 2026-05-05 12:45 | 44.11852 | -78.62655 | 11493 ft | 270 kts | 240° |
| 2026-05-05 12:45 | 44.10899 | -78.64872 | 11208 ft | 265 kts | 240° |
| 2026-05-05 12:45 | 44.09955 | -78.67072 | 10934 ft | 264 kts | 240° |
| 2026-05-05 12:46 | 44.09021 | -78.69243 | 10679 ft | 257 kts | 240° |
| 2026-05-05 12:46 | 44.08118 | -78.71342 | 10436 ft | 250 kts | 240° |
| 2026-05-05 12:46 | 44.07231 | -78.73407 | 10191 ft | 248 kts | 240° |
| 2026-05-05 12:46 | 44.06351 | -78.75462 | 9959 ft | 247 kts | 241° |
| 2026-05-05 12:47 | 44.05474 | -78.77516 | 9708 ft | 247 kts | 241° |
| 2026-05-05 12:47 | 44.04597 | -78.79564 | 9463 ft | 246 kts | 240° |
| 2026-05-05 12:47 | 44.03563 | -78.81463 | 9203 ft | 248 kts | 230° |
| 2026-05-05 12:47 | 44.02387 | -78.83209 | 8940 ft | 247 kts | 230° |
| 2026-05-05 12:48 | 44.01230 | -78.84933 | 8690 ft | 247 kts | 230° |
| 2026-05-05 12:48 | 44.00066 | -78.86678 | 8429 ft | 246 kts | 230° |
| 2026-05-05 12:48 | 43.98906 | -78.88423 | 8170 ft | 245 kts | 230° |
| 2026-05-05 12:48 | 43.97765 | -78.90135 | 7917 ft | 237 kts | 230° |
| 2026-05-05 12:49 | 43.96659 | -78.91792 | 7662 ft | 230 kts | 230° |
| 2026-05-05 12:49 | 43.95591 | -78.93393 | 7420 ft | 222 kts | 230° |
| 2026-05-05 12:49 | 43.94555 | -78.94943 | 7166 ft | 216 kts | 230° |
| 2026-05-05 12:49 | 43.93550 | -78.96446 | 7034 ft | 210 kts | 230° |
| 2026-05-05 12:50 | 43.92560 | -78.97931 | 7015 ft | 209 kts | 230° |
| 2026-05-05 12:50 | 43.91571 | -78.99416 | 7012 ft | 209 kts | 230° |
| 2026-05-05 12:50 | 43.90582 | -79.00899 | 7012 ft | 209 kts | 229° |
| 2026-05-05 12:50 | 43.89592 | -79.02381 | 7011 ft | 209 kts | 229° |
| 2026-05-05 12:51 | 43.88596 | -79.03867 | 7009 ft | 212 kts | 230° |
| 2026-05-05 12:51 | 43.87642 | -79.05417 | 7006 ft | 211 kts | 239° |
| 2026-05-05 12:51 | 43.87085 | -79.07289 | 6796 ft | 211 kts | 257° |
| 2026-05-05 12:51 | 43.87032 | -79.09328 | 6503 ft | 213 kts | 268° |
| 2026-05-05 12:52 | 43.87093 | -79.11373 | 6213 ft | 212 kts | 268° |
| 2026-05-05 12:52 | 43.87145 | -79.13415 | 5921 ft | 212 kts | 267° |
| 2026-05-05 12:52 | 43.87194 | -79.15456 | 5614 ft | 212 kts | 268° |
| 2026-05-05 12:52 | 43.87243 | -79.17488 | 5305 ft | 211 kts | 268° |
| 2026-05-05 12:53 | 43.87287 | -79.19515 | 5002 ft | 210 kts | 268° |
| 2026-05-05 12:53 | 43.87330 | -79.21535 | 4698 ft | 209 kts | 268° |
| 2026-05-05 12:53 | 43.87374 | -79.23521 | 4410 ft | 209 kts | 268° |
| 2026-05-05 12:53 | 43.87421 | -79.25532 | 4103 ft | 208 kts | 268° |
| 2026-05-05 12:54 | 43.87452 | -79.29513 | 3519 ft | 204 kts | 259° |
| 2026-05-05 12:54 | 43.86994 | -79.31352 | 3245 ft | 203 kts | 242° |
| 2026-05-05 12:54 | 43.86168 | -79.32930 | 3047 ft | 204 kts | 232° |
| 2026-05-05 12:55 | 43.85224 | -79.34393 | 3009 ft | 203 kts | 231° |
| 2026-05-05 12:55 | 43.84284 | -79.35782 | 3027 ft | 190 kts | 230° |
| 2026-05-05 12:55 | 43.83397 | -79.37083 | 3006 ft | 181 kts | 231° |
| 2026-05-05 12:55 | 43.82545 | -79.38334 | 3008 ft | 177 kts | 231° |
| 2026-05-05 12:56 | 43.81707 | -79.39565 | 3009 ft | 173 kts | 231° |
| 2026-05-05 12:56 | 43.80903 | -79.40742 | 3015 ft | 165 kts | 232° |
| 2026-05-05 12:56 | 43.80384 | -79.41503 | 3018 ft | 163 kts | 231° |
| 2026-05-05 12:56 | 43.79604 | -79.42646 | 3012 ft | 164 kts | 232° |
| 2026-05-05 12:57 | 43.78823 | -79.43789 | 3014 ft | 163 kts | 230° |
| 2026-05-05 12:57 | 43.78046 | -79.44926 | 3011 ft | 161 kts | 230° |
| 2026-05-05 12:57 | 43.77288 | -79.46034 | 3002 ft | 156 kts | 230° |
| 2026-05-05 12:57 | 43.76305 | -79.47472 | 2884 ft | 154 kts | 231° |
| 2026-05-05 12:58 | 43.75811 | -79.48193 | 2767 ft | 151 kts | 231° |
| 2026-05-05 12:58 | 43.75103 | -79.49227 | 2599 ft | 147 kts | 231° |
| 2026-05-05 12:58 | 43.74402 | -79.50251 | 2404 ft | 146 kts | 230° |
| 2026-05-05 12:58 | 43.73705 | -79.51269 | 2205 ft | 145 kts | 231° |
| 2026-05-05 12:59 | 43.73016 | -79.52274 | 2015 ft | 139 kts | 231° |
| 2026-05-05 12:59 | 43.72384 | -79.53194 | 1835 ft | 130 kts | 230° |
| 2026-05-05 12:59 | 43.71762 | -79.54102 | 1666 ft | 130 kts | 230° |
| 2026-05-05 13:00 | 43.70530 | -79.55897 | 1316 ft | 129 kts | 227° |
| 2026-05-05 13:00 | 43.69901 | -79.56816 | 1131 ft | 134 kts | 227° |
| 2026-05-05 13:01 | 43.67983 | -79.59618 | 641 ft | 133 kts | 227° |
| 2026-05-05 13:01 | 43.67375 | -79.60508 | 565 ft | 114 kts | 225° |
| 2026-05-05 13:01 | 43.67034 | -79.60994 | 570 ft | 30 kts | 226° |
| 2026-05-05 13:01 | 43.66929 | -79.61221 | 566 ft | 18 kts | 248° |
| 2026-05-05 13:02 | 43.66901 | -79.61347 | 566 ft | 7 kts | 256° |
| 2026-05-05 13:02 | 43.66912 | -79.61412 | 571 ft | 7 kts | 315° |
| 2026-05-05 13:02 | 43.66948 | -79.61421 | 570 ft | 3 kts | 10° |
| 2026-05-05 13:02 | 43.66961 | -79.61414 | 569 ft | 4 kts | 25° |
| 2026-05-05 13:03 | 43.67002 | -79.61364 | 568 ft | 10 kts | 47° |
| 2026-05-05 13:03 | 43.67049 | -79.61296 | 567 ft | 10 kts | 46° |
| 2026-05-05 13:03 | 43.67098 | -79.61226 | 567 ft | 10 kts | 45° |
| 2026-05-05 13:03 | 43.67151 | -79.61155 | 565 ft | 11 kts | 32° |
| 2026-05-05 13:04 | 43.67215 | -79.61182 | 563 ft | 10 kts | 320° |
| 2026-05-05 13:04 | 43.67261 | -79.61240 | 561 ft | 10 kts | 317° |
| 2026-05-05 13:04 | 43.67321 | -79.61318 | 561 ft | 12 kts | 316° |
| 2026-05-05 13:04 | 43.67386 | -79.61404 | 565 ft | 14 kts | 316° |
| 2026-05-05 13:05 | 43.67458 | -79.61497 | 563 ft | 15 kts | 317° |
| 2026-05-05 13:05 | 43.67546 | -79.61612 | 567 ft | 20 kts | 316° |
| 2026-05-05 13:05 | 43.67648 | -79.61744 | 563 ft | 20 kts | 316° |
| 2026-05-05 13:05 | 43.67748 | -79.61875 | 563 ft | 19 kts | 316° |
| 2026-05-05 13:06 | 43.67834 | -79.61987 | 562 ft | 16 kts | 316° |
| 2026-05-05 13:06 | 43.67895 | -79.62053 | 570 ft | 10 kts | 338° |
| 2026-05-05 13:06 | 43.67957 | -79.62039 | 566 ft | 9 kts | 33° |
| 2026-05-05 13:06 | 43.67979 | -79.61972 | 562 ft | 7 kts | 94° |
| 2026-05-05 13:07 | 43.67950 | -79.61926 | 562 ft | 6 kts | 148° |
| 2026-05-05 13:07 | 43.67916 | -79.61900 | 567 ft | 5 kts | 152° |
| 2026-05-05 13:07 | 43.67904 | -79.61846 | 564 ft | 7 kts | 82° |
| 2026-05-05 13:07 | 43.67915 | -79.61791 | 570 ft | 3 kts | 73° |
| 2026-05-05 13:08 | 43.67919 | -79.61774 | 565 ft | 0 kts | 72° |